Time;durP1;ratioP1;P1;durP2;ratioP2;P2;SDS_P1;SDS_P2;PMS_P1;PMS_P2;Temp;Humidity;BMP_temperature;BMP_pressure;BME280_temperature;BME280_humidity;BME280_pressure;Samples;Min_cycle;Max_cycle;Signal;HPM_P1;HPM_P2
2021/12/19 00:00:02;;;;;;;;;;;;;;;26.17;24.54;98776.91;173154;28;1112;-45
2021/12/19 00:00:09;;;;;;;;;;;;;;;26.19;24.63;98776.81;172323;28;1513;-46
2021/12/19 00:00:15;;;;;;;;;;;;;;;26.23;24.66;98780.94;173201;28;899;-45
2021/12/19 00:00:20;;;;;;;;;;;;;;;26.26;24.68;98778.13;173929;28;820;-46
2021/12/19 00:00:25;;;;;;;;;;;;;;;26.30;24.29;98777.84;173790;28;1093;-45
2021/12/19 00:00:31;;;;;;;;;;;;;;;26.27;24.63;98780.69;173238;28;1027;-45
2021/12/19 00:00:37;;;;;;;;;;;;;;;26.29;24.53;98776.13;173182;28;917;-45
2021/12/19 00:00:42;;;;;;;;;;;;;;;26.29;24.50;98780.56;172104;28;1733;-46
2021/12/19 00:00:48;;;;;;;;;;;;;;;26.24;24.54;98777.38;173196;28;829;-45
2021/12/19 00:00:54;;;;;;;;;;;;;;;26.27;24.65;98777.19;173846;28;1215;-46
2021/12/19 00:01:04;;;;;;;;;;;;;;;26.29;24.63;98776.13;173906;28;1111;-45
2021/12/19 00:01:20;;;;;;;;;;;;;;;26.31;24.39;98782.19;173263;28;877;-44
2021/12/19 00:01:48;;;;;;;;;;;;;;;26.13;24.90;98784.16;173502;28;962;-44
2021/12/19 00:02:17;;;;;;;;;;;;;;;26.30;24.66;98784.91;172648;28;652;-46
2021/12/19 00:02:49;;;;;;;;;;;;;;;26.20;24.80;98779.34;172646;28;820;-46
2021/12/19 00:04:27;;;;;;;;;;;;;;;26.14;24.56;98775.28;171846;28;1130;-45
2021/12/19 00:04:44;;;;;;;;;;;;;;;26.10;24.67;98772.94;171184;28;905;-47
2021/12/19 00:04:53;;;;;;;;;;;;;;;26.16;24.49;98777.88;171645;28;4416;-45
2021/12/19 00:08:53;;;;;;;;;;;;;;;26.02;24.86;98767.28;172421;28;1010;-45
2021/12/19 00:08:58;;;;;;;;;;;;;;;26.03;24.80;98772.47;173301;28;884;-46
2021/12/19 00:09:04;;;;;;;;;;;;;;;26.04;25.05;98768.03;172617;28;1155;-45
2021/12/19 00:09:09;;;;;;;;;;;;;;;26.04;24.70;98770.66;173378;28;948;-45
2021/12/19 00:09:14;;;;;;;;;;;;;;;26.04;25.03;98771.53;172850;28;869;-46
2021/12/19 00:09:19;;;;;;;;;;;;;;;26.07;24.90;98767.88;173284;28;1177;-45
2021/12/19 00:09:27;;;;;;;;;;;;;;;25.97;25.05;98770.19;173383;28;1006;-44
2021/12/19 00:09:32;;;;;;;;;;;;;;;25.93;24.84;98767.84;172600;28;848;-45
2021/12/19 00:09:37;;;;;;;;;;;;;;;25.99;25.05;98770.09;172687;28;1079;-45
2021/12/19 00:09:42;;;;;;;;;;;;;;;25.99;25.17;98767.44;172892;28;1224;-45
2021/12/19 00:09:47;;;;;;;;;;;;;;;25.93;25.06;98767.84;173259;28;877;-45
2021/12/19 00:09:53;;;;;;;;;;;;;;;25.93;25.23;98766.06;172965;28;1164;-47
2021/12/19 00:09:58;;;;;;;;;;;;;;;25.99;25.11;98770.09;172724;28;753;-44
2021/12/19 00:10:03;;;;;;;;;;;;;;;26.02;24.84;98768.13;172710;28;1159;-46
2021/12/19 00:10:09;;;;;;;;;;;;;;;26.02;24.84;98768.13;173361;28;1061;-46
2021/12/19 00:10:14;;;;;;;;;;;;;;;26.00;25.14;98766.53;172925;28;862;-45
2021/12/19 00:10:19;;;;;;;;;;;;;;;26.04;24.72;98768.88;172062;28;955;-46
2021/12/19 00:10:24;;;;;;;;;;;;;;;26.09;24.99;98768.59;172013;28;845;-44
2021/12/19 00:10:29;;;;;;;;;;;;;;;26.08;24.60;98765.13;172942;28;1170;-47
2021/12/19 00:10:35;;;;;;;;;;;;;;;26.06;24.98;98768.78;173328;28;928;-45
2021/12/19 00:10:40;;;;;;;;;;;;;;;26.00;24.94;98769.19;172964;28;1215;-46
2021/12/19 00:10:45;;;;;;;;;;;;;;;25.98;24.94;98765.75;172515;28;805;-45
2021/12/19 00:10:51;;;;;;;;;;;;;;;26.00;24.97;98764.75;172772;28;1512;-46
2021/12/19 00:10:57;;;;;;;;;;;;;;;26.00;24.78;98767.38;173442;28;884;-46
2021/12/19 00:11:02;;;;;;;;;;;;;;;26.08;24.71;98767.75;173048;28;1214;-47
2021/12/19 00:11:07;;;;;;;;;;;;;;;26.14;24.88;98763.88;173333;28;952;-46
2021/12/19 00:11:12;;;;;;;;;;;;;;;26.10;24.76;98771.16;173161;28;777;-45
2021/12/19 00:11:18;;;;;;;;;;;;;;;26.08;24.83;98772.19;173299;28;1105;-44
2021/12/19 00:11:25;;;;;;;;;;;;;;;26.14;24.97;98772.66;173973;28;797;-45
2021/12/19 00:11:30;;;;;;;;;;;;;;;26.18;24.51;98768.03;172194;28;4300;-46
2021/12/19 00:11:35;;;;;;;;;;;;;;;26.21;24.59;98770.47;172571;28;801;-46
2021/12/19 00:11:40;;;;;;;;;;;;;;;26.25;24.97;98768.50;173670;28;1237;-46
2021/12/19 00:11:46;;;;;;;;;;;;;;;26.23;24.65;98768.59;173979;28;797;-45
2021/12/19 00:11:51;;;;;;;;;;;;;;;26.22;24.62;98769.53;173445;28;1231;-46
2021/12/19 00:11:56;;;;;;;;;;;;;;;26.20;24.80;98766.13;173295;28;912;-46
2021/12/19 00:12:01;;;;;;;;;;;;;;;26.22;24.83;98776.59;173388;28;1167;-45
2021/12/19 00:12:07;;;;;;;;;;;;;;;26.23;24.85;98768.59;173942;28;1014;-45
2021/12/19 00:12:14;;;;;;;;;;;;;;;26.18;24.68;98768.03;173831;28;939;-46
2021/12/19 00:12:19;;;;;;;;;;;;;;;26.21;24.74;98773.13;174045;28;1058;-44
2021/12/19 00:12:24;;;;;;;;;;;;;;;26.22;24.41;98768.69;173765;28;1168;-46
2021/12/19 00:12:29;;;;;;;;;;;;;;;26.24;24.83;98767.66;173307;28;813;-45
2021/12/19 00:12:35;;;;;;;;;;;;;;;26.28;24.55;98765.66;173185;28;935;-45
2021/12/19 00:12:40;;;;;;;;;;;;;;;26.21;24.83;98765.19;173911;28;1321;-46
2021/12/19 00:12:45;;;;;;;;;;;;;;;26.13;24.93;98765.66;173865;28;809;-45
2021/12/19 00:12:52;;;;;;;;;;;;;;;26.15;24.81;98773.53;173343;28;1203;-46
2021/12/19 00:12:58;;;;;;;;;;;;;;;26.20;24.81;98767.94;173270;28;825;-45
2021/12/19 00:13:03;;;;;;;;;;;;;;;26.20;24.59;98768.78;173242;28;1239;-45
2021/12/19 00:13:09;;;;;;;;;;;;;;;26.23;24.80;98770.38;173290;28;860;-46
2021/12/19 00:13:14;;;;;;;;;;;;;;;26.26;24.42;98767.56;172736;28;1536;-46
2021/12/19 00:13:19;;;;;;;;;;;;;;;26.26;24.59;98770.19;173381;28;797;-45
2021/12/19 00:13:26;;;;;;;;;;;;;;;26.28;24.51;98770.94;172647;28;1215;-45
2021/12/19 00:13:31;;;;;;;;;;;;;;;26.29;24.41;98772.66;172254;28;1521;-46
2021/12/19 00:13:37;;;;;;;;;;;;;;;26.27;24.65;98764.81;172430;28;1001;-46
2021/12/19 00:13:42;;;;;;;;;;;;;;;26.31;24.75;98768.97;172599;28;845;-46
2021/12/19 00:13:47;;;;;;;;;;;;;;;26.28;24.48;98769.16;172657;28;1145;-47
2021/12/19 00:13:53;;;;;;;;;;;;;;;26.29;24.73;98770.84;173398;28;851;-45
2021/12/19 00:13:58;;;;;;;;;;;;;;;26.30;24.57;98761.13;173191;28;1192;-45
2021/12/19 00:14:03;;;;;;;;;;;;;;;26.28;24.38;98773.59;172570;28;1203;-45
2021/12/19 00:14:08;;;;;;;;;;;;;;;26.23;24.73;98770.38;172716;28;929;-46
2021/12/19 00:14:14;;;;;;;;;;;;;;;26.24;24.74;98764.16;172753;28;1149;-45
2021/12/19 00:14:20;;;;;;;;;;;;;;;26.27;24.75;98766.59;172679;28;801;-45
2021/12/19 00:14:25;;;;;;;;;;;;;;;26.29;24.44;98770.84;173169;28;1153;-46
2021/12/19 00:14:30;;;;;;;;;;;;;;;26.30;24.60;98767.25;173338;28;761;-46
2021/12/19 00:14:35;;;;;;;;;;;;;;;26.30;24.39;98761.97;172928;28;1077;-45
2021/12/19 00:14:40;;;;;;;;;;;;;;;26.29;24.34;98765.56;173249;28;959;-45
2021/12/19 00:14:46;;;;;;;;;;;;;;;26.31;24.76;98762.84;173293;28;1144;-45
2021/12/19 00:14:51;;;;;;;;;;;;;;;26.24;24.43;98769.47;173954;28;951;-46
2021/12/19 00:14:56;;;;;;;;;;;;;;;26.22;24.54;98758.94;173985;28;813;-45
2021/12/19 00:15:02;;;;;;;;;;;;;;;26.17;24.48;98768.97;173049;28;1436;-45
2021/12/19 00:15:07;;;;;;;;;;;;;;;26.16;24.88;98762.84;173324;28;781;-46
2021/12/19 00:15:13;;;;;;;;;;;;;;;26.20;24.61;98762.66;173482;28;1468;-45
2021/12/19 00:15:18;;;;;;;;;;;;;;;26.21;24.72;98762.53;173268;28;814;-47
2021/12/19 00:15:23;;;;;;;;;;;;;;;26.23;24.50;98762.44;173664;28;1189;-45
2021/12/19 00:15:28;;;;;;;;;;;;;;;26.17;24.68;98761.06;173988;28;805;-45
2021/12/19 00:15:33;;;;;;;;;;;;;;;26.26;24.75;98762.28;173165;28;4192;-45
2021/12/19 00:15:39;;;;;;;;;;;;;;;26.26;24.39;98764.91;173267;28;726;-45
2021/12/19 00:15:44;;;;;;;;;;;;;;;26.25;24.43;98765.88;173204;28;1042;-47
2021/12/19 00:15:49;;;;;;;;;;;;;;;26.29;24.66;98767.34;173923;28;765;-46
2021/12/19 00:15:54;;;;;;;;;;;;;;;26.26;24.47;98771.06;173990;28;880;-46
2021/12/19 00:15:59;;;;;;;;;;;;;;;26.28;24.63;98763.88;173247;28;1203;-45
2021/12/19 00:16:05;;;;;;;;;;;;;;;26.30;24.64;98761.13;173307;28;777;-46
2021/12/19 00:16:10;;;;;;;;;;;;;;;26.25;24.65;98758.78;173671;28;1142;-45
2021/12/19 00:16:15;;;;;;;;;;;;;;;26.27;24.48;98762.16;173356;28;809;-46
2021/12/19 00:16:21;;;;;;;;;;;;;;;26.29;24.46;98760.28;173536;28;1204;-45
2021/12/19 00:16:26;;;;;;;;;;;;;;;26.28;24.77;98758.56;173416;28;1644;-45
2021/12/19 00:16:31;;;;;;;;;;;;;;;26.31;24.57;98755.75;172918;28;1500;-46
2021/12/19 00:16:36;;;;;;;;;;;;;;;26.32;24.62;98757.44;173187;28;884;-46
2021/12/19 00:16:41;;;;;;;;;;;;;;;26.32;24.77;98760.09;173269;28;888;-45
2021/12/19 00:16:47;;;;;;;;;;;;;;;26.27;24.48;98756.03;173189;28;1188;-46
2021/12/19 00:16:55;;;;;;;;;;;;;;;26.27;24.66;98756.03;173229;28;952;-46
2021/12/19 00:17:00;;;;;;;;;;;;;;;26.22;24.72;98753.66;172150;28;1041;-45
2021/12/19 00:17:05;;;;;;;;;;;;;;;26.28;24.44;98753.28;172556;28;837;-45
2021/12/19 00:17:11;;;;;;;;;;;;;;;26.21;24.37;98756.41;173278;28;1196;-45
2021/12/19 00:17:16;;;;;;;;;;;;;;;26.23;24.53;98760.69;172675;28;777;-45
2021/12/19 00:17:21;;;;;;;;;;;;;;;26.22;24.65;98752.81;173076;28;1215;-45
2021/12/19 00:17:26;;;;;;;;;;;;;;;26.22;24.85;98753.66;173308;28;813;-45
2021/12/19 00:17:31;;;;;;;;;;;;;;;26.22;24.66;98753.66;172947;28;1139;-45
2021/12/19 00:17:37;;;;;;;;;;;;;;;26.24;24.77;98754.44;172572;28;885;-44
2021/12/19 00:17:42;;;;;;;;;;;;;;;26.25;24.78;98752.66;172569;28;1080;-46
2021/12/19 00:17:47;;;;;;;;;;;;;;;26.28;24.55;98758.56;173225;28;944;-45
2021/12/19 00:17:52;;;;;;;;;;;;;;;26.28;24.79;98750.63;173264;28;719;-45
2021/12/19 00:17:57;;;;;;;;;;;;;;;26.21;24.44;98754.59;172628;28;1175;-45
2021/12/19 00:18:03;;;;;;;;;;;;;;;26.24;24.61;98749.16;172576;28;1121;-45
2021/12/19 00:18:08;;;;;;;;;;;;;;;26.25;24.79;98752.66;172971;28;1125;-47
2021/12/19 00:18:13;;;;;;;;;;;;;;;26.26;24.68;98741.97;172804;28;1593;-46
2021/12/19 00:18:18;;;;;;;;;;;;;;;26.29;24.57;98751.50;172026;28;1475;-45
2021/12/19 00:18:23;;;;;;;;;;;;;;;26.31;24.73;98746.97;172450;28;1511;-46
2021/12/19 00:18:29;;;;;;;;;;;;;;;26.27;24.80;98750.75;172289;28;1571;-46
2021/12/19 00:18:34;;;;;;;;;;;;;;;26.30;24.38;98750.53;172569;28;916;-46
2021/12/19 00:18:42;;;;;;;;;;;;;;;26.26;24.70;98752.53;171927;28;873;-45
2021/12/19 00:18:48;;;;;;;;;;;;;;;26.30;24.79;98750.53;171812;28;858;-45
2021/12/19 00:18:54;;;;;;;;;;;;;;;26.30;24.47;98746.09;172972;28;1837;-45
2021/12/19 00:18:59;;;;;;;;;;;;;;;26.31;24.65;98753.13;173269;28;1117;-46
2021/12/19 00:19:04;;;;;;;;;;;;;;;26.26;24.41;98747.25;173295;28;1069;-45
2021/12/19 00:19:09;;;;;;;;;;;;;;;26.27;24.74;98745.44;174028;28;896;-46
2021/12/19 00:19:14;;;;;;;;;;;;;;;26.27;24.42;98743.66;173456;28;649;-45
2021/12/19 00:19:20;;;;;;;;;;;;;;;26.27;24.47;98746.31;173877;28;1169;-45
2021/12/19 00:19:25;;;;;;;;;;;;;;;26.30;24.43;98745.25;173986;28;808;-47
2021/12/19 00:19:30;;;;;;;;;;;;;;;26.32;24.47;98749.53;173581;28;1155;-45
2021/12/19 00:19:35;;;;;;;;;;;;;;;26.26;24.41;98744.59;172771;28;4218;-46
2021/12/19 00:19:41;;;;;;;;;;;;;;;26.23;24.56;98755.38;173472;28;1224;-46
2021/12/19 00:19:46;;;;;;;;;;;;;;;26.26;24.70;98751.69;173843;28;801;-46
2021/12/19 00:19:51;;;;;;;;;;;;;;;26.28;24.59;98741.84;173858;28;1211;-46
2021/12/19 00:19:56;;;;;;;;;;;;;;;26.26;24.67;98747.25;173326;28;940;-46
2021/12/19 00:20:01;;;;;;;;;;;;;;;26.26;24.52;98743.75;173237;28;1119;-44
2021/12/19 00:20:07;;;;;;;;;;;;;;;26.31;24.63;98742.53;173822;28;1224;-44
2021/12/19 00:20:12;;;;;;;;;;;;;;;26.30;24.60;98745.25;173724;28;945;-45
2021/12/19 00:20:17;;;;;;;;;;;;;;;26.30;24.52;98746.09;172977;28;1212;-45
2021/12/19 00:20:22;;;;;;;;;;;;;;;26.31;24.47;98747.81;172557;28;881;-44
2021/12/19 00:20:28;;;;;;;;;;;;;;;26.30;24.71;98746.09;172351;28;1232;-45
2021/12/19 00:20:33;;;;;;;;;;;;;;;26.33;24.45;98748.56;171967;28;809;-44
2021/12/19 00:20:38;;;;;;;;;;;;;;;26.31;24.35;98746.97;171880;28;1129;-46
2021/12/19 00:20:43;;;;;;;;;;;;;;;26.20;24.43;98750.28;172603;28;852;-45
2021/12/19 00:20:49;;;;;;;;;;;;;;;26.21;24.73;98744.03;172449;28;889;-45
2021/12/19 00:20:54;;;;;;;;;;;;;;;26.21;24.49;98751.13;172001;28;1197;-47
2021/12/19 00:20:59;;;;;;;;;;;;;;;26.27;24.42;98746.31;171850;28;1168;-46
2021/12/19 00:21:04;;;;;;;;;;;;;;;26.24;24.54;98745.66;172281;28;1145;-45
2021/12/19 00:21:11;;;;;;;;;;;;;;;26.26;24.70;98746.41;172623;28;872;-45
2021/12/19 00:21:17;;;;;;;;;;;;;;;26.23;24.47;98747.47;172128;28;1114;-45
2021/12/19 00:21:23;;;;;;;;;;;;;;;26.25;24.40;98744.72;172640;28;809;-45
2021/12/19 00:21:28;;;;;;;;;;;;;;;26.26;24.38;98744.59;172127;28;1220;-45
2021/12/19 00:21:33;;;;;;;;;;;;;;;26.30;24.37;98745.25;171917;28;889;-45
2021/12/19 00:21:40;;;;;;;;;;;;;;;26.32;24.15;98749.53;172174;28;1192;-45
2021/12/19 00:21:45;;;;;;;;;;;;;;;26.31;24.70;98752.25;172543;28;857;-45
2021/12/19 00:21:51;;;;;;;;;;;;;;;26.31;24.39;98749.63;172270;28;1200;-45
2021/12/19 00:21:56;;;;;;;;;;;;;;;26.35;24.30;98743.19;171898;28;829;-46
2021/12/19 00:22:01;;;;;;;;;;;;;;;26.33;24.47;98745.06;172054;28;1179;-45
2021/12/19 00:22:07;;;;;;;;;;;;;;;26.33;24.56;98739.78;172643;28;770;-45
2021/12/19 00:22:13;;;;;;;;;;;;;;;26.35;24.52;98744.03;172367;28;928;-45
2021/12/19 00:22:18;;;;;;;;;;;;;;;26.33;24.27;98740.63;173417;28;857;-46
2021/12/19 00:22:23;;;;;;;;;;;;;;;26.30;24.40;98748.75;173876;28;1111;-46
2021/12/19 00:22:28;;;;;;;;;;;;;;;26.34;24.70;98747.63;173301;28;1097;-44
2021/12/19 00:22:34;;;;;;;;;;;;;;;26.34;24.65;98744.97;173299;28;746;-46
2021/12/19 00:22:39;;;;;;;;;;;;;;;26.31;24.34;98747.81;173746;28;1152;-47
2021/12/19 00:22:44;;;;;;;;;;;;;;;26.33;24.50;98745.06;173921;28;972;-46
2021/12/19 00:22:49;;;;;;;;;;;;;;;26.32;24.57;98746.03;173553;28;1152;-45
2021/12/19 00:22:54;;;;;;;;;;;;;;;26.31;24.60;98747.81;172739;28;801;-45
2021/12/19 00:23:00;;;;;;;;;;;;;;;26.32;24.51;98749.53;173131;28;1128;-46
2021/12/19 00:23:05;;;;;;;;;;;;;;;26.32;24.60;98748.66;173303;28;880;-46
2021/12/19 00:23:10;;;;;;;;;;;;;;;26.31;24.40;98750.47;173301;28;952;-47
2021/12/19 00:23:15;;;;;;;;;;;;;;;26.34;24.26;98744.13;173221;28;1106;-45
2021/12/19 00:23:21;;;;;;;;;;;;;;;26.34;24.53;98752.91;173401;28;774;-45
2021/12/19 00:23:26;;;;;;;;;;;;;;;26.32;24.57;98743.38;173571;28;1137;-47
2021/12/19 00:23:31;;;;;;;;;;;;;;;26.32;24.47;98741.59;174009;28;892;-44
2021/12/19 00:23:37;;;;;;;;;;;;;;;26.32;24.62;98744.22;173260;28;4406;-45
2021/12/19 00:23:42;;;;;;;;;;;;;;;26.31;24.49;98750.47;173261;28;987;-46
2021/12/19 00:23:48;;;;;;;;;;;;;;;26.30;24.34;98743.44;173335;28;1191;-45
2021/12/19 00:23:54;;;;;;;;;;;;;;;26.31;24.34;98747.81;173880;28;1018;-46
2021/12/19 00:23:59;;;;;;;;;;;;;;;26.32;24.37;98744.22;173780;28;1151;-46
2021/12/19 00:24:04;;;;;;;;;;;;;;;26.35;24.44;98749.31;173276;28;999;-44
2021/12/19 00:24:09;;;;;;;;;;;;;;;26.35;24.43;98751.09;173292;28;1075;-44
2021/12/19 00:24:14;;;;;;;;;;;;;;;26.35;24.40;98748.47;173373;28;1248;-44
2021/12/19 00:24:20;;;;;;;;;;;;;;;26.27;24.23;98746.31;173269;28;821;-45
2021/12/19 00:24:25;;;;;;;;;;;;;;;26.35;24.42;98751.97;173770;28;1292;-45
2021/12/19 00:24:30;;;;;;;;;;;;;;;26.37;24.42;98752.69;173897;28;824;-45
2021/12/19 00:24:35;;;;;;;;;;;;;;;26.39;24.55;98750.03;173599;28;1175;-45
2021/12/19 00:24:40;;;;;;;;;;;;;;;26.37;24.45;98747.41;173274;28;940;-45
2021/12/19 00:24:46;;;;;;;;;;;;;;;26.34;24.42;98752.06;173175;28;1171;-47
2021/12/19 00:24:51;;;;;;;;;;;;;;;26.28;24.57;98750.63;173965;28;1023;-45
2021/12/19 00:24:56;;;;;;;;;;;;;;;26.33;24.43;98748.56;173972;28;881;-45
2021/12/19 00:25:01;;;;;;;;;;;;;;;26.31;24.26;98746.97;173380;28;1101;-44
2021/12/19 00:25:07;;;;;;;;;;;;;;;26.33;24.71;98751.22;173318;28;808;-44
2021/12/19 00:25:12;;;;;;;;;;;;;;;26.30;24.31;98747.91;173461;28;1312;-47
2021/12/19 00:25:17;;;;;;;;;;;;;;;26.33;24.27;98747.72;173341;28;923;-47
2021/12/19 00:25:22;;;;;;;;;;;;;;;26.34;24.33;98747.63;173579;28;1173;-45
2021/12/19 00:25:27;;;;;;;;;;;;;;;26.35;24.42;98748.47;174013;28;923;-45
2021/12/19 00:25:32;;;;;;;;;;;;;;;26.32;24.32;98749.53;173860;28;1246;-45
2021/12/19 00:25:38;;;;;;;;;;;;;;;26.33;24.64;98756.50;173375;28;963;-44
2021/12/19 00:25:43;;;;;;;;;;;;;;;26.31;24.30;98753.13;173204;28;812;-46
2021/12/19 00:25:48;;;;;;;;;;;;;;;26.30;24.76;98755.81;173784;28;1060;-46
2021/12/19 00:25:53;;;;;;;;;;;;;;;26.29;24.35;98756.78;174003;28;1007;-45
2021/12/19 00:25:59;;;;;;;;;;;;;;;26.21;24.68;98759.91;173544;28;1180;-45
2021/12/19 00:26:04;;;;;;;;;;;;;;;26.23;24.47;98755.38;173273;28;1152;-46
2021/12/19 00:26:09;;;;;;;;;;;;;;;26.22;24.47;98755.47;173454;28;1224;-46
2021/12/19 00:26:15;;;;;;;;;;;;;;;26.25;24.67;98753.50;173469;28;927;-45
2021/12/19 00:26:20;;;;;;;;;;;;;;;26.30;24.60;98755.81;173390;28;1140;-45
2021/12/19 00:26:26;;;;;;;;;;;;;;;26.29;24.74;98756.78;174010;28;789;-45
2021/12/19 00:26:31;;;;;;;;;;;;;;;26.30;24.48;98754.03;173389;28;805;-46
2021/12/19 00:26:36;;;;;;;;;;;;;;;26.33;24.51;98756.50;172551;28;939;-46
2021/12/19 00:26:42;;;;;;;;;;;;;;;26.33;24.60;98753.00;172715;28;1070;-45
2021/12/19 00:26:47;;;;;;;;;;;;;;;26.33;24.44;98756.50;173100;28;1140;-45
2021/12/19 00:26:52;;;;;;;;;;;;;;;26.33;24.47;98756.50;173192;28;928;-45
2021/12/19 00:26:57;;;;;;;;;;;;;;;26.31;24.62;98753.13;172924;28;1096;-45
2021/12/19 00:27:03;;;;;;;;;;;;;;;26.27;24.59;98746.31;172598;28;1148;-45
2021/12/19 00:27:08;;;;;;;;;;;;;;;26.30;24.58;98751.38;172826;28;1108;-46
2021/12/19 00:27:13;;;;;;;;;;;;;;;26.34;24.64;98757.34;173002;28;884;-45
2021/12/19 00:27:18;;;;;;;;;;;;;;;26.30;24.38;98750.53;172665;28;1129;-46
2021/12/19 00:27:23;;;;;;;;;;;;;;;26.26;24.41;98749.91;173393;28;781;-45
2021/12/19 00:27:29;;;;;;;;;;;;;;;26.24;24.69;98751.78;173263;28;952;-45
2021/12/19 00:27:34;;;;;;;;;;;;;;;26.28;24.58;98753.28;172294;28;4350;-48
2021/12/19 00:27:39;;;;;;;;;;;;;;;26.27;24.60;98751.59;172684;28;892;-46
2021/12/19 00:27:44;;;;;;;;;;;;;;;26.29;24.70;98754.13;172872;28;1133;-45
2021/12/19 00:27:49;;;;;;;;;;;;;;;26.31;24.41;98757.56;172886;28;1557;-45
2021/12/19 00:27:55;;;;;;;;;;;;;;;26.30;24.34;98756.69;172646;28;972;-45
2021/12/19 00:28:00;;;;;;;;;;;;;;;26.32;24.43;98751.31;172610;28;875;-45
2021/12/19 00:28:05;;;;;;;;;;;;;;;26.25;24.59;98753.50;172686;28;889;-44
2021/12/19 00:28:10;;;;;;;;;;;;;;;26.24;24.35;98758.88;172663;28;1430;-46
2021/12/19 00:28:15;;;;;;;;;;;;;;;26.27;24.65;98756.88;172234;28;1494;-46
2021/12/19 00:28:20;;;;;;;;;;;;;;;26.31;24.38;98757.56;172422;28;1716;-46
2021/12/19 00:28:26;;;;;;;;;;;;;;;26.31;24.25;98761.03;172647;28;837;-45
2021/12/19 00:28:31;;;;;;;;;;;;;;;26.30;24.46;98751.38;172334;28;1923;-46
2021/12/19 00:28:36;;;;;;;;;;;;;;;26.32;24.66;98759.25;172014;28;1944;-45
2021/12/19 00:28:41;;;;;;;;;;;;;;;26.24;24.49;98759.72;172641;28;1957;-45
2021/12/19 00:28:47;;;;;;;;;;;;;;;26.23;24.52;98759.81;172580;28;904;-45
2021/12/19 00:28:53;;;;;;;;;;;;;;;26.20;24.49;98755.56;172443;28;1081;-45
2021/12/19 00:29:00;;;;;;;;;;;;;;;26.26;24.49;98762.28;173275;28;825;-45
2021/12/19 00:29:05;;;;;;;;;;;;;;;26.28;24.34;98748.00;172294;28;1003;-45
2021/12/19 00:29:10;;;;;;;;;;;;;;;26.31;24.21;98752.25;173334;28;1066;-45
2021/12/19 00:29:16;;;;;;;;;;;;;;;26.31;24.32;98753.13;172647;28;931;-45
2021/12/19 00:29:21;;;;;;;;;;;;;;;26.33;24.51;98760.94;172650;28;809;-46
2021/12/19 00:29:27;;;;;;;;;;;;;;;26.31;24.45;98753.13;172565;28;872;-46
2021/12/19 00:29:32;;;;;;;;;;;;;;;26.19;24.67;98756.50;173209;28;1228;-46
2021/12/19 00:29:37;;;;;;;;;;;;;;;26.24;24.67;98757.09;173243;28;869;-45
2021/12/19 00:29:42;;;;;;;;;;;;;;;26.22;24.44;98758.94;172689;28;1137;-45
2021/12/19 00:29:48;;;;;;;;;;;;;;;26.27;24.68;98753.38;172604;28;964;-45
2021/12/19 00:29:53;;;;;;;;;;;;;;;26.29;24.69;98754.97;172849;28;1227;-46
2021/12/19 00:29:58;;;;;;;;;;;;;;;26.31;24.57;98757.56;173280;28;961;-46
2021/12/19 00:30:04;;;;;;;;;;;;;;;26.19;24.68;98753.88;172613;28;1120;-46
2021/12/19 00:30:09;;;;;;;;;;;;;;;26.23;24.65;98755.38;172576;28;1248;-45
2021/12/19 00:30:14;;;;;;;;;;;;;;;26.32;24.37;98756.59;171999;28;999;-45
2021/12/19 00:30:19;;;;;;;;;;;;;;;26.33;24.62;98755.66;172576;28;1347;-45
2021/12/19 00:30:24;;;;;;;;;;;;;;;26.32;24.66;98754.81;172670;28;1047;-44
2021/12/19 00:30:30;;;;;;;;;;;;;;;26.32;24.28;98751.31;172397;28;1232;-45
2021/12/19 00:30:35;;;;;;;;;;;;;;;26.32;24.53;98754.81;172575;28;880;-45
2021/12/19 00:30:40;;;;;;;;;;;;;;;26.34;24.53;98752.06;172835;28;1173;-45
2021/12/19 00:30:45;;;;;;;;;;;;;;;26.34;24.62;98755.56;173262;28;817;-44
2021/12/19 00:30:51;;;;;;;;;;;;;;;26.35;24.26;98754.59;173036;28;1066;-46
2021/12/19 00:30:56;;;;;;;;;;;;;;;26.30;24.58;98747.91;172656;28;940;-45
2021/12/19 00:31:01;;;;;;;;;;;;;;;26.33;24.54;98755.66;172449;28;1167;-46
2021/12/19 00:31:09;;;;;;;;;;;;;;;26.33;24.53;98750.38;173191;28;1267;-45
2021/12/19 00:31:14;;;;;;;;;;;;;;;26.24;24.29;98743.88;172880;28;967;-46
2021/12/19 00:31:19;;;;;;;;;;;;;;;26.30;24.48;98746.09;173364;28;884;-45
2021/12/19 00:31:24;;;;;;;;;;;;;;;26.25;24.49;98748.19;173317;28;911;-45
2021/12/19 00:31:30;;;;;;;;;;;;;;;26.20;24.70;98749.44;172456;28;1916;-45
2021/12/19 00:31:35;;;;;;;;;;;;;;;26.21;24.67;98751.97;172017;28;4302;-45
2021/12/19 00:31:40;;;;;;;;;;;;;;;26.22;24.62;98748.38;172802;28;1083;-45
2021/12/19 00:31:46;;;;;;;;;;;;;;;26.26;24.71;98747.25;172456;28;1118;-45
2021/12/19 00:31:51;;;;;;;;;;;;;;;26.27;24.29;98746.31;172159;28;1090;-45
2021/12/19 00:31:56;;;;;;;;;;;;;;;26.28;24.67;98750.63;171932;28;1708;-47
2021/12/19 00:32:01;;;;;;;;;;;;;;;26.26;24.42;98747.25;172134;28;1180;-45
2021/12/19 00:32:06;;;;;;;;;;;;;;;26.31;24.32;98744.34;172779;28;1189;-46
2021/12/19 00:32:12;;;;;;;;;;;;;;;26.29;24.66;98752.34;173161;28;940;-48
2021/12/19 00:32:17;;;;;;;;;;;;;;;26.27;24.33;98741.00;173227;28;1212;-46
2021/12/19 00:32:22;;;;;;;;;;;;;;;26.24;24.55;98745.66;173316;28;889;-45
2021/12/19 00:32:27;;;;;;;;;;;;;;;26.19;24.58;98748.56;172761;28;1101;-46
2021/12/19 00:32:33;;;;;;;;;;;;;;;26.19;24.57;98748.56;172609;28;850;-46
2021/12/19 00:32:40;;;;;;;;;;;;;;;26.23;24.75;98747.47;172716;28;1046;-46
2021/12/19 00:32:45;;;;;;;;;;;;;;;26.26;24.43;98743.75;173127;28;864;-46
2021/12/19 00:32:50;;;;;;;;;;;;;;;26.26;24.55;98747.25;172709;28;1136;-47
2021/12/19 00:32:55;;;;;;;;;;;;;;;26.25;24.78;98756.13;172559;28;813;-46
2021/12/19 00:33:00;;;;;;;;;;;;;;;26.26;24.55;98749.91;172547;28;1180;-45
2021/12/19 00:33:06;;;;;;;;;;;;;;;26.21;24.52;98746.69;173240;28;931;-45
2021/12/19 00:33:11;;;;;;;;;;;;;;;26.27;24.47;98751.59;173205;28;801;-46
2021/12/19 00:33:16;;;;;;;;;;;;;;;26.22;24.47;98740.44;172504;28;1070;-45
2021/12/19 00:33:21;;;;;;;;;;;;;;;26.29;24.41;98746.19;172600;28;925;-45
2021/12/19 00:33:26;;;;;;;;;;;;;;;26.30;24.54;98751.38;172040;28;1225;-45
2021/12/19 00:33:32;;;;;;;;;;;;;;;26.28;24.63;98747.16;171939;28;754;-45
2021/12/19 00:33:37;;;;;;;;;;;;;;;26.25;24.38;98748.19;171966;28;1062;-45
2021/12/19 00:33:42;;;;;;;;;;;;;;;26.26;24.58;98749.06;172461;28;806;-46
2021/12/19 00:33:48;;;;;;;;;;;;;;;26.25;24.66;98745.56;172944;28;1164;-46
2021/12/19 00:33:53;;;;;;;;;;;;;;;26.28;24.61;98745.34;172578;28;952;-45
2021/12/19 00:33:58;;;;;;;;;;;;;;;26.24;24.42;98741.22;172594;28;802;-47
2021/12/19 00:34:03;;;;;;;;;;;;;;;26.26;24.41;98749.06;172570;28;1081;-46
2021/12/19 00:34:08;;;;;;;;;;;;;;;26.22;24.74;98745.72;172649;28;920;-45
2021/12/19 00:34:15;;;;;;;;;;;;;;;26.21;24.67;98746.69;172637;28;1217;-47
2021/12/19 00:34:20;;;;;;;;;;;;;;;26.27;24.61;98741.00;172666;28;801;-45
2021/12/19 00:34:25;;;;;;;;;;;;;;;26.28;24.35;98748.00;173041;28;1086;-45
2021/12/19 00:34:30;;;;;;;;;;;;;;;26.29;24.51;98746.19;173211;28;842;-45
2021/12/19 00:34:36;;;;;;;;;;;;;;;26.29;24.64;98746.19;172959;28;1153;-45
2021/12/19 00:34:41;;;;;;;;;;;;;;;26.31;24.58;98747.81;172593;28;817;-46
2021/12/19 00:34:50;;;;;;;;;;;;;;;26.32;24.49;98746.88;172640;28;1145;-45
2021/12/19 00:34:56;;;;;;;;;;;;;;;26.32;24.27;98752.16;173166;28;836;-46
2021/12/19 00:35:01;;;;;;;;;;;;;;;26.32;24.44;98746.88;172577;28;1232;-47
2021/12/19 00:35:06;;;;;;;;;;;;;;;26.32;24.34;98748.66;172622;28;1063;-46
2021/12/19 00:35:11;;;;;;;;;;;;;;;26.28;24.61;98748.00;172715;28;1474;-45
2021/12/19 00:35:17;;;;;;;;;;;;;;;26.27;24.40;98746.31;172590;28;836;-48
2021/12/19 00:35:22;;;;;;;;;;;;;;;26.30;24.62;98743.44;172870;28;1125;-45
2021/12/19 00:35:27;;;;;;;;;;;;;;;26.31;24.49;98750.47;173403;28;841;-47
2021/12/19 00:35:32;;;;;;;;;;;;;;;26.32;24.54;98748.66;173264;28;1204;-45
2021/12/19 00:35:38;;;;;;;;;;;;;;;26.32;24.36;98748.66;172223;28;4273;-47
2021/12/19 00:35:43;;;;;;;;;;;;;;;26.26;24.22;98744.59;172614;28;817;-47
2021/12/19 00:35:48;;;;;;;;;;;;;;;26.20;24.64;98749.44;173028;28;1160;-45
2021/12/19 00:35:53;;;;;;;;;;;;;;;26.24;24.35;98748.31;173382;28;935;-45
2021/12/19 00:35:58;;;;;;;;;;;;;;;26.25;24.68;98742.91;172900;28;1160;-45
2021/12/19 00:36:04;;;;;;;;;;;;;;;26.28;24.54;98741.84;172624;28;1203;-45